createdAt,value
2017-10-16T00:00:00.568Z,95386.67
2017-10-16T00:02:28.250Z,95387.67
2017-10-16T00:04:57.447Z,95383.74
2017-10-16T00:07:25.104Z,95388.12
2017-10-16T00:09:53.546Z,95386.73
2017-10-16T00:12:21.332Z,95393.19
2017-10-16T00:14:48.997Z,95396.87
2017-10-16T00:17:16.672Z,95385.91
2017-10-16T00:19:44.428Z,95391.58
2017-10-16T00:22:12.143Z,95392.27
2017-10-16T00:24:39.888Z,95393.02
2017-10-16T00:27:07.701Z,95389.86
2017-10-16T00:29:35.379Z,95390.00
2017-10-16T00:32:03.132Z,95398.03
2017-10-16T00:34:30.904Z,95396.91
2017-10-16T00:36:58.730Z,95395.89
2017-10-16T00:39:26.485Z,95394.72
2017-10-16T00:41:54.170Z,95397.05
2017-10-16T00:44:21.891Z,95399.11
2017-10-16T00:46:49.567Z,95395.75
2017-10-16T00:49:17.321Z,95399.86
2017-10-16T00:51:45.026Z,95399.16
2017-10-16T00:54:12.739Z,95396.29
2017-10-16T00:56:40.522Z,95390.48
2017-10-16T00:59:08.349Z,95393.30
2017-10-16T01:01:36.110Z,95389.07
2017-10-16T01:04:03.813Z,95384.14
2017-10-16T01:06:31.494Z,95383.73
2017-10-16T01:08:59.594Z,95387.38
2017-10-16T01:11:27.342Z,95391.02
2017-10-16T01:13:55.105Z,95387.67
2017-10-16T01:16:22.909Z,95381.03
2017-10-16T01:18:51.826Z,95387.95
2017-10-16T01:21:19.530Z,95383.62
2017-10-16T01:23:47.398Z,95380.21
2017-10-16T01:26:15.400Z,95383.44
2017-10-16T01:28:43.480Z,95378.84
2017-10-16T01:31:11.186Z,95382.87
2017-10-16T01:33:38.940Z,95386.91
2017-10-16T01:36:06.774Z,95383.89
2017-10-16T01:38:35.598Z,95381.22
2017-10-16T01:41:03.382Z,95383.44
2017-10-16T01:43:32.147Z,95381.52
2017-10-16T01:45:59.900Z,95377.84
2017-10-16T01:48:27.673Z,95380.35
2017-10-16T01:50:56.334Z,95377.81
2017-10-16T01:53:24.077Z,95378.94
2017-10-16T01:55:51.900Z,95377.86
2017-10-16T01:58:19.680Z,95380.45
2017-10-16T02:00:48.807Z,95385.53
2017-10-16T02:03:16.568Z,95386.95
2017-10-16T02:05:44.270Z,95386.70
2017-10-16T02:08:12.020Z,95387.12
2017-10-16T02:10:39.723Z,95386.98
2017-10-16T02:13:07.432Z,95383.37
2017-10-16T02:15:35.158Z,95387.00
2017-10-16T02:18:02.899Z,95392.17
2017-10-16T02:20:30.611Z,95398.86
2017-10-16T02:22:58.285Z,95393.39
2017-10-16T02:25:26.108Z,95401.29
2017-10-16T02:27:53.858Z,95396.02
2017-10-16T02:30:21.602Z,95398.88
2017-10-16T02:32:49.258Z,95395.30
2017-10-16T02:35:17.008Z,95389.75
2017-10-16T02:37:44.695Z,95393.69
2017-10-16T02:40:12.416Z,95392.55
2017-10-16T02:42:40.164Z,95399.90
2017-10-16T02:45:07.848Z,95399.17
2017-10-16T02:47:35.560Z,95396.60
2017-10-16T02:50:03.274Z,95399.66
2017-10-16T02:52:31.017Z,95396.85
2017-10-16T02:54:58.694Z,95395.98
2017-10-16T02:57:26.379Z,95401.75
2017-10-16T02:59:54.144Z,95406.80
2017-10-16T03:02:21.863Z,95403.55
2017-10-16T03:04:49.630Z,95406.38
2017-10-16T03:07:17.314Z,95409.20
2017-10-16T03:09:45.047Z,95418.83
2017-10-16T03:12:12.794Z,95415.19
2017-10-16T03:14:40.545Z,95417.02
2017-10-16T03:17:08.259Z,95418.68
2017-10-16T03:19:36.003Z,95416.82
2017-10-16T03:22:03.714Z,95417.28
2017-10-16T03:24:31.461Z,95413.41
2017-10-16T03:26:59.183Z,95413.32
2017-10-16T03:29:26.974Z,95420.48
2017-10-16T03:31:54.713Z,95419.60
2017-10-16T03:34:22.470Z,95424.12
2017-10-16T03:36:50.184Z,95419.83
2017-10-16T03:39:18.085Z,95417.94
2017-10-16T03:41:45.821Z,95415.47
2017-10-16T03:44:13.481Z,95419.67
2017-10-16T03:46:41.244Z,95417.66
2017-10-16T03:49:08.991Z,95413.22
2017-10-16T03:51:36.653Z,95416.20
2017-10-16T03:54:04.375Z,95414.19
2017-10-16T03:56:32.205Z,95414.19
2017-10-16T03:58:59.996Z,95419.20
2017-10-16T04:01:27.669Z,95416.62
2017-10-16T04:03:55.394Z,95421.70
2017-10-16T04:06:23.097Z,95416.37
2017-10-16T04:08:50.758Z,95426.05
2017-10-16T04:11:18.508Z,95422.45
2017-10-16T04:13:46.173Z,95422.69
2017-10-16T04:16:13.932Z,95422.13
2017-10-16T04:18:41.729Z,95425.60
2017-10-16T04:21:09.420Z,95430.84
2017-10-16T04:23:37.097Z,95428.20
2017-10-16T04:26:04.836Z,95425.41
2017-10-16T04:28:32.568Z,95429.23
2017-10-16T04:31:00.258Z,95434.63
2017-10-16T04:33:27.959Z,95428.90
2017-10-16T04:35:55.773Z,95433.43
2017-10-16T04:38:23.495Z,95427.78
2017-10-16T04:40:51.234Z,95432.55
2017-10-16T04:43:18.976Z,95432.40
2017-10-16T04:45:46.706Z,95431.70
2017-10-16T04:48:14.399Z,95436.03
2017-10-16T04:50:42.096Z,95434.68
2017-10-16T04:53:09.832Z,95433.58
2017-10-16T04:55:37.540Z,95439.53
2017-10-16T04:58:05.263Z,95442.27
2017-10-16T05:00:32.930Z,95445.58
2017-10-16T05:03:00.611Z,95440.63
2017-10-16T05:05:28.351Z,95438.53
2017-10-16T05:07:56.053Z,95439.42
2017-10-16T05:10:23.771Z,95444.75
2017-10-16T05:12:51.502Z,95447.77
2017-10-16T05:15:19.195Z,95447.20
2017-10-16T05:17:46.916Z,95447.44
2017-10-16T05:20:14.626Z,95455.52
2017-10-16T05:22:42.356Z,95450.75
2017-10-16T05:25:10.036Z,95456.53
2017-10-16T05:27:37.833Z,95457.50
2017-10-16T05:30:05.588Z,95453.56
2017-10-16T05:32:34.322Z,95462.19
2017-10-16T05:35:02.018Z,95459.84
2017-10-16T05:37:29.753Z,95461.38
2017-10-16T05:39:57.480Z,95464.66
2017-10-16T05:42:26.105Z,95466.67
2017-10-16T05:44:53.803Z,95464.70
2017-10-16T05:47:21.565Z,95469.83
2017-10-16T05:49:49.253Z,95470.03
2017-10-16T05:52:17.054Z,95475.31
2017-10-16T05:54:44.731Z,95486.59
2017-10-16T05:57:12.478Z,95476.77
2017-10-16T05:59:41.162Z,95481.66
2017-10-16T06:02:08.916Z,95487.71
2017-10-16T06:04:36.742Z,95488.78
2017-10-16T06:07:04.520Z,95489.80
2017-10-16T06:09:32.331Z,95490.23
2017-10-16T06:12:00.129Z,95491.44
2017-10-16T06:14:27.928Z,95490.47
2017-10-16T06:16:55.707Z,95495.45
2017-10-16T06:19:23.428Z,95490.75
2017-10-16T06:21:51.168Z,95497.37
2017-10-16T06:24:19.971Z,95503.26
2017-10-16T06:26:47.664Z,95496.59
2017-10-16T06:29:15.362Z,95500.77
2017-10-16T06:31:43.197Z,95499.75
2017-10-16T06:34:10.921Z,95497.84
2017-10-16T06:36:38.640Z,95502.13
2017-10-16T06:39:06.490Z,95501.77
2017-10-16T06:41:34.213Z,95499.33
2017-10-16T06:44:03.222Z,95501.59
2017-10-16T06:46:31.950Z,95505.45
2017-10-16T06:48:59.690Z,95499.55
2017-10-16T06:51:27.478Z,95494.96
2017-10-16T06:53:56.268Z,95502.58
2017-10-16T06:56:24.044Z,95499.41
2017-10-16T06:58:51.845Z,95495.85
2017-10-16T07:01:19.619Z,95501.98
2017-10-16T07:03:47.478Z,95498.73
2017-10-16T07:06:15.248Z,95501.58
2017-10-16T07:08:42.947Z,95504.03
2017-10-16T07:11:10.713Z,95502.41
2017-10-16T07:13:38.542Z,95506.19
2017-10-16T07:16:06.397Z,95504.28
2017-10-16T07:18:34.271Z,95507.13
2017-10-16T07:21:03.027Z,95512.89
2017-10-16T07:23:30.849Z,95505.81
2017-10-16T07:25:58.724Z,95506.69
2017-10-16T07:28:26.512Z,95505.47
2017-10-16T07:30:54.259Z,95511.98
2017-10-16T07:33:22.092Z,95510.34
2017-10-16T07:35:50.010Z,95505.53
2017-10-16T07:38:18.888Z,95503.78
2017-10-16T07:40:46.738Z,95506.33
2017-10-16T07:43:14.591Z,95506.28
2017-10-16T07:45:43.382Z,95502.45
2017-10-16T07:48:11.127Z,95504.76
2017-10-16T07:50:38.859Z,95498.33
2017-10-16T07:53:06.663Z,95503.40
2017-10-16T07:55:34.420Z,95497.48
2017-10-16T07:58:02.190Z,95495.73
2017-10-16T08:00:29.980Z,95486.20
2017-10-16T08:02:57.732Z,95493.83
2017-10-16T08:05:25.533Z,95493.73
2017-10-16T08:07:53.328Z,95491.09
2017-10-16T08:10:22.094Z,95496.20
2017-10-16T08:12:49.863Z,95494.35
2017-10-16T08:15:17.612Z,95492.14
2017-10-16T08:17:45.395Z,95490.88
2017-10-16T08:20:13.200Z,95486.83
2017-10-16T08:22:41.022Z,95484.70
2017-10-16T08:25:08.898Z,95486.23
2017-10-16T08:27:36.719Z,95477.57
2017-10-16T08:30:05.409Z,95474.30
2017-10-16T08:32:33.247Z,95469.22
2017-10-16T08:35:01.568Z,95470.78
2017-10-16T08:37:30.453Z,95467.23
2017-10-16T08:39:58.321Z,95462.94
2017-10-16T08:42:26.233Z,95468.75
2017-10-16T08:44:54.138Z,95461.03
2017-10-16T08:47:21.992Z,95453.84
2017-10-16T08:49:49.873Z,95459.96
2017-10-16T08:52:17.641Z,95450.33
2017-10-16T08:54:45.421Z,95445.19
2017-10-16T08:57:13.244Z,95448.59
2017-10-16T08:59:41.294Z,95445.12
2017-10-16T09:02:09.098Z,95441.14
2017-10-16T09:04:36.969Z,95442.05
2017-10-16T09:07:05.660Z,95445.16
2017-10-16T09:09:33.545Z,95436.95
2017-10-16T09:12:01.389Z,95437.34
2017-10-16T09:14:29.190Z,95436.06
2017-10-16T09:16:57.031Z,95429.69
2017-10-16T09:19:24.914Z,95424.61
2017-10-16T09:21:52.791Z,95427.94
2017-10-16T09:24:20.624Z,95419.97
2017-10-16T09:26:49.602Z,95419.93
2017-10-16T09:29:17.386Z,95413.46
2017-10-16T09:31:45.219Z,95413.55
2017-10-16T09:34:13.036Z,95411.58
2017-10-16T09:36:40.907Z,95400.98
2017-10-16T09:39:08.702Z,95403.11
2017-10-16T09:41:36.503Z,95396.64
2017-10-16T09:44:04.312Z,95399.61
2017-10-16T09:46:32.069Z,95386.78
2017-10-16T09:48:59.949Z,95391.52
2017-10-16T09:51:27.752Z,95387.47
2017-10-16T09:53:55.674Z,95382.39
2017-10-16T09:56:23.789Z,95381.99
2017-10-16T09:58:51.622Z,95375.22
2017-10-16T10:01:19.480Z,95372.55
2017-10-16T10:03:47.500Z,95370.01
2017-10-16T10:06:15.219Z,95362.45
2017-10-16T10:08:43.092Z,95364.22
2017-10-16T10:11:10.876Z,95351.61
2017-10-16T10:13:38.704Z,95359.05
2017-10-16T10:16:06.462Z,95349.77
2017-10-16T10:18:34.241Z,95337.84
2017-10-16T10:21:02.015Z,95339.31
2017-10-16T10:23:29.802Z,95341.08
2017-10-16T10:25:57.576Z,95336.11
2017-10-16T10:28:25.327Z,95336.70
2017-10-16T10:30:53.068Z,95332.69
2017-10-16T10:33:20.841Z,95328.09
2017-10-16T10:35:48.576Z,95321.25
2017-10-16T10:38:16.380Z,95322.34
2017-10-16T10:40:45.214Z,95316.55
2017-10-16T10:43:12.967Z,95313.00
2017-10-16T10:45:40.698Z,95312.41
2017-10-16T10:48:08.461Z,95311.08
2017-10-16T10:50:36.173Z,95302.42
2017-10-16T10:53:03.946Z,95305.31
2017-10-16T10:55:32.580Z,95292.86
2017-10-16T10:58:00.338Z,95286.69
2017-10-16T11:00:28.065Z,95287.92
2017-10-16T11:02:55.901Z,95278.34
2017-10-16T11:05:23.649Z,95269.11
2017-10-16T11:07:51.433Z,95277.03
2017-10-16T11:10:19.242Z,95263.77
2017-10-16T11:12:46.946Z,95259.79
2017-10-16T11:15:14.765Z,95257.14
2017-10-16T11:17:42.604Z,95251.97
2017-10-16T11:20:10.395Z,95251.42
2017-10-16T11:22:38.200Z,95249.66
2017-10-16T11:25:05.960Z,95241.17
2017-10-16T11:27:33.894Z,95235.83
2017-10-16T11:30:02.204Z,95234.64
2017-10-16T11:32:30.060Z,95226.91
2017-10-16T11:34:58.385Z,95229.78
2017-10-16T11:37:26.116Z,95220.06
2017-10-16T11:39:54.475Z,95215.30
2017-10-16T11:42:22.698Z,95214.77
2017-10-16T11:44:50.735Z,95216.06
2017-10-16T11:47:18.711Z,95207.16
2017-10-16T11:49:46.636Z,95203.72
2017-10-16T11:52:15.815Z,95205.03
2017-10-16T11:54:43.718Z,95197.76
2017-10-16T11:57:11.720Z,95193.80
2017-10-16T11:59:39.624Z,95190.70
2017-10-16T12:02:09.642Z,95192.09
2017-10-16T12:04:38.476Z,95189.58
2017-10-16T12:07:06.453Z,95185.34
2017-10-16T12:09:34.323Z,95186.88
2017-10-16T12:12:03.196Z,95176.91
2017-10-16T12:14:31.214Z,95177.67
2017-10-16T12:16:59.352Z,95174.30
2017-10-16T12:19:27.294Z,95167.56
2017-10-16T12:21:55.301Z,95166.19
2017-10-16T12:24:23.256Z,95160.72
2017-10-16T12:26:51.190Z,95166.48
2017-10-16T12:29:19.207Z,95154.42
2017-10-16T12:31:47.257Z,95156.16
2017-10-16T12:34:15.267Z,95151.09
2017-10-16T12:36:43.354Z,95152.23
2017-10-16T12:39:11.352Z,95143.44
2017-10-16T12:41:39.427Z,95140.62
2017-10-16T12:44:08.012Z,95140.32
2017-10-16T12:46:35.839Z,95141.06
2017-10-16T12:49:03.738Z,95136.19
2017-10-16T12:51:31.657Z,95140.09
2017-10-16T12:53:59.564Z,95136.95
2017-10-16T12:56:27.378Z,95137.34
2017-10-16T12:58:55.207Z,95130.86
2017-10-16T13:01:23.199Z,95128.48
2017-10-16T13:03:51.132Z,95124.77
2017-10-16T13:06:19.003Z,95129.49
2017-10-16T13:08:46.768Z,95123.27
2017-10-16T13:11:14.645Z,95124.19
2017-10-16T13:13:42.543Z,95115.78
2017-10-16T13:16:10.332Z,95111.35
2017-10-16T13:18:38.561Z,95113.86
2017-10-16T13:21:06.456Z,95118.62
2017-10-16T13:23:34.256Z,95110.30
2017-10-16T13:26:02.365Z,95105.87
2017-10-16T13:28:30.268Z,95107.91
2017-10-16T13:30:58.127Z,95103.31
2017-10-16T13:33:26.017Z,95103.92
2017-10-16T13:35:53.856Z,95106.84
2017-10-16T13:38:21.782Z,95104.44
2017-10-16T13:40:49.710Z,95103.78
2017-10-16T13:43:18.489Z,95105.13
2017-10-16T13:45:46.952Z,95106.50
2017-10-16T13:48:14.893Z,95106.84
2017-10-16T13:50:42.678Z,95108.75
2017-10-16T13:53:10.551Z,95098.90
2017-10-16T13:55:38.491Z,95094.18
2017-10-16T13:58:07.431Z,95099.49
2017-10-16T14:00:35.305Z,95100.63
2017-10-16T14:03:03.178Z,95101.12
2017-10-16T14:05:31.026Z,95099.51
2017-10-16T14:07:58.998Z,95096.38
2017-10-16T14:10:26.878Z,95102.83
2017-10-16T14:12:54.995Z,95104.52
2017-10-16T14:15:24.075Z,95101.63
2017-10-16T14:17:51.979Z,95104.55
2017-10-16T14:20:20.456Z,95103.20
2017-10-16T14:22:49.199Z,95100.84
2017-10-16T14:25:17.120Z,95104.02
2017-10-16T14:27:45.038Z,95104.51
2017-10-16T14:30:13.106Z,95105.51
2017-10-16T14:32:42.200Z,95098.41
2017-10-16T14:35:10.411Z,95096.31
2017-10-16T14:37:38.288Z,95098.51
2017-10-16T14:40:06.230Z,95098.17
2017-10-16T14:42:35.179Z,95094.07
2017-10-16T14:45:03.050Z,95100.19
2017-10-16T14:47:31.060Z,95101.09
2017-10-16T14:49:58.878Z,95097.43
2017-10-16T14:52:27.894Z,95099.28
2017-10-16T14:54:56.740Z,95099.66
2017-10-16T14:57:24.555Z,95103.42
2017-10-16T14:59:53.283Z,95101.27
2017-10-16T15:02:31.010Z,95094.80
2017-10-16T15:04:59.230Z,95097.64
2017-10-16T15:07:27.924Z,95102.63
2017-10-16T15:09:55.758Z,95098.27
2017-10-16T15:12:23.602Z,95097.25
2017-10-16T15:14:51.414Z,95100.96
2017-10-16T15:17:19.239Z,95096.44
2017-10-16T15:19:47.055Z,95103.38
2017-10-16T15:22:14.881Z,95109.00
2017-10-16T15:24:42.711Z,95106.84
2017-10-16T15:27:10.512Z,95108.79
2017-10-16T15:29:38.343Z,95107.50
2017-10-16T15:32:06.372Z,95111.72
2017-10-16T15:34:34.227Z,95114.29
2017-10-16T15:37:02.192Z,95119.33
2017-10-16T15:39:30.064Z,95122.77
2017-10-16T15:41:57.903Z,95110.35
2017-10-16T15:44:25.806Z,95113.71
2017-10-16T15:46:54.957Z,95112.35
2017-10-16T15:49:23.183Z,95121.00
2017-10-16T15:51:51.262Z,95120.03
2017-10-16T15:54:19.186Z,95121.22
2017-10-16T15:56:47.151Z,95122.59
2017-10-16T15:59:17.963Z,95128.06
2017-10-16T16:01:45.969Z,95129.41
2017-10-16T16:04:13.913Z,95132.70
2017-10-16T16:06:42.816Z,95135.19
2017-10-16T16:09:11.627Z,95134.11
2017-10-16T16:11:39.778Z,95140.64
2017-10-16T16:14:07.854Z,95141.86
2017-10-16T16:16:36.062Z,95143.14
2017-10-16T16:19:06.045Z,95148.12
2017-10-16T16:21:35.317Z,95151.88
2017-10-16T16:24:03.155Z,95152.27
2017-10-16T16:26:31.970Z,95153.45
2017-10-16T16:29:00.209Z,95153.61
2017-10-16T16:31:28.123Z,95160.37
2017-10-16T16:33:56.208Z,95166.83
2017-10-16T16:36:24.247Z,95168.62
2017-10-16T16:38:52.150Z,95172.32
2017-10-16T16:41:20.334Z,95170.47
2017-10-16T16:43:48.251Z,95176.50
2017-10-16T16:46:17.489Z,95172.69
2017-10-16T16:48:46.343Z,95175.05
2017-10-16T16:51:15.141Z,95182.90
2017-10-16T16:53:44.193Z,95182.17
2017-10-16T16:56:12.386Z,95186.63
2017-10-16T16:58:42.345Z,95192.52
2017-10-16T17:01:10.506Z,95192.58
2017-10-16T17:03:39.304Z,95196.69
2017-10-16T17:06:08.644Z,95191.52
2017-10-16T17:08:37.723Z,95201.72
2017-10-16T17:11:05.680Z,95206.95
2017-10-16T17:13:33.672Z,95204.90
2017-10-16T17:16:01.890Z,95209.26
2017-10-16T17:18:31.204Z,95209.93
2017-10-16T17:20:59.318Z,95216.55
2017-10-16T17:23:29.467Z,95217.14
2017-10-16T17:25:59.603Z,95217.81
2017-10-16T17:28:27.577Z,95221.45
2017-10-16T17:30:55.649Z,95224.57
2017-10-16T17:33:23.925Z,95224.34
2017-10-16T17:35:53.112Z,95225.62
2017-10-16T17:38:22.276Z,95230.95
2017-10-16T17:40:51.262Z,95230.66
2017-10-16T17:43:19.365Z,95235.50
2017-10-16T17:45:47.392Z,95234.89
2017-10-16T17:48:15.627Z,95228.73
2017-10-16T17:50:43.785Z,95238.14
2017-10-16T17:53:13.364Z,95242.64
2017-10-16T17:55:41.368Z,95241.79
2017-10-16T17:58:12.501Z,95243.97
2017-10-16T18:00:40.544Z,95242.22
2017-10-16T18:03:08.495Z,95243.05
2017-10-16T18:05:36.514Z,95247.61
2017-10-16T18:08:04.674Z,95244.07
2017-10-16T18:10:32.567Z,95245.39
2017-10-16T18:13:00.558Z,95245.99
2017-10-16T18:15:28.371Z,95247.80
2017-10-16T18:17:58.335Z,95243.14
2017-10-16T18:20:29.860Z,95247.26
2017-10-16T18:22:57.710Z,95245.19
2017-10-16T18:25:25.700Z,95249.50
2017-10-16T18:27:53.633Z,95251.67
2017-10-16T18:30:21.443Z,95253.02
2017-10-16T18:32:50.359Z,95257.92
2017-10-16T18:35:18.181Z,95256.92
2017-10-16T18:37:46.036Z,95261.64
2017-10-16T18:40:13.835Z,95264.24
2017-10-16T18:42:42.706Z,95257.73
2017-10-16T18:45:11.747Z,95261.77
2017-10-16T18:47:40.489Z,95258.06
2017-10-16T18:50:08.556Z,95256.25
2017-10-16T18:52:36.543Z,95259.09
2017-10-16T18:55:04.920Z,95254.07
2017-10-16T18:57:32.731Z,95265.49
2017-10-16T19:00:00.574Z,95263.80
2017-10-16T19:02:29.125Z,95269.39
2017-10-16T19:04:57.232Z,95274.63
2017-10-16T19:07:25.553Z,95272.30
2017-10-16T19:09:53.652Z,95275.12
2017-10-16T19:12:21.638Z,95273.63
2017-10-16T19:14:53.083Z,95274.23
2017-10-16T19:17:21.351Z,95277.02
2017-10-16T19:19:49.340Z,95269.25
2017-10-16T19:22:17.494Z,95275.78
2017-10-16T19:24:45.684Z,95275.37
2017-10-16T19:27:14.156Z,95281.46
2017-10-16T19:29:42.183Z,95271.80
2017-10-16T19:32:10.216Z,95275.83
2017-10-16T19:34:38.550Z,95276.52
2017-10-16T19:37:07.045Z,95281.46
2017-10-16T19:39:35.849Z,95281.88
2017-10-16T19:42:03.752Z,95283.94
2017-10-16T19:44:31.836Z,95282.03
2017-10-16T19:47:00.055Z,95291.40
2017-10-16T19:49:27.928Z,95289.64
2017-10-16T19:51:55.953Z,95288.77
2017-10-16T19:54:23.788Z,95292.13
2017-10-16T19:56:51.880Z,95294.00
2017-10-16T19:59:19.793Z,95293.41
2017-10-16T20:01:48.669Z,95296.39
2017-10-16T20:04:16.663Z,95300.45
2017-10-16T20:06:45.388Z,95303.97
2017-10-16T20:09:13.254Z,95301.77
2017-10-16T20:11:41.207Z,95303.72
2017-10-16T20:14:09.772Z,95302.47
2017-10-16T20:16:37.797Z,95312.56
2017-10-16T20:19:06.072Z,95307.48
2017-10-16T20:21:34.168Z,95313.08
2017-10-16T20:24:03.688Z,95305.34
2017-10-16T20:26:31.550Z,95309.49
2017-10-16T20:29:00.550Z,95310.31
2017-10-16T20:31:28.469Z,95316.70
2017-10-16T20:33:56.622Z,95312.26
2017-10-16T20:36:24.532Z,95315.04
2017-10-16T20:38:52.408Z,95319.31
2017-10-16T20:41:20.237Z,95317.58
2017-10-16T20:43:48.057Z,95316.39
2017-10-16T20:46:15.902Z,95315.98
2017-10-16T20:48:43.708Z,95318.55
2017-10-16T20:51:11.598Z,95319.80
2017-10-16T20:53:39.470Z,95321.22
2017-10-16T20:56:07.260Z,95321.22
2017-10-16T20:58:35.134Z,95322.10
2017-10-16T21:01:02.898Z,95320.88
2017-10-16T21:03:30.714Z,95324.82
2017-10-16T21:05:58.597Z,95319.44
2017-10-16T21:08:26.509Z,95317.66
2017-10-16T21:10:54.393Z,95322.20
2017-10-16T21:13:22.357Z,95322.14
2017-10-16T21:15:50.278Z,95320.44
2017-10-16T21:18:18.115Z,95324.42
2017-10-16T21:20:46.073Z,95327.02
2017-10-16T21:23:13.950Z,95325.01
2017-10-16T21:25:41.868Z,95321.89
2017-10-16T21:28:09.817Z,95331.36
2017-10-16T21:30:37.590Z,95333.52
2017-10-16T21:33:05.435Z,95332.03
2017-10-16T21:35:33.199Z,95328.14
2017-10-16T21:38:00.983Z,95327.42
2017-10-16T21:40:28.839Z,95332.70
2017-10-16T21:42:56.665Z,95328.25
2017-10-16T21:45:24.416Z,95334.06
2017-10-16T21:47:52.280Z,95334.41
2017-10-16T21:50:20.088Z,95333.52
2017-10-16T21:52:47.852Z,95333.64
2017-10-16T21:55:15.688Z,95338.83
2017-10-16T21:57:43.557Z,95333.11
2017-10-16T22:00:11.349Z,95332.48
2017-10-16T22:02:39.212Z,95335.52
2017-10-16T22:05:07.034Z,95332.59
2017-10-16T22:07:34.811Z,95330.19
2017-10-16T22:10:02.639Z,95331.72
2017-10-16T22:12:30.466Z,95330.38
2017-10-16T22:14:58.260Z,95332.07
2017-10-16T22:17:26.061Z,95327.52
2017-10-16T22:19:53.982Z,95331.94
2017-10-16T22:22:21.729Z,95333.19
2017-10-16T22:24:50.428Z,95334.80
2017-10-16T22:27:18.254Z,95327.83
2017-10-16T22:29:46.059Z,95336.06
2017-10-16T22:32:13.834Z,95331.35
2017-10-16T22:34:41.615Z,95335.87
2017-10-16T22:37:09.399Z,95330.88
2017-10-16T22:39:37.239Z,95322.19
2017-10-16T22:42:05.149Z,95323.66
2017-10-16T22:44:32.904Z,95321.37
2017-10-16T22:47:00.709Z,95329.34
2017-10-16T22:49:28.505Z,95323.25
2017-10-16T22:51:56.263Z,95328.36
2017-10-16T22:54:35.652Z,95328.76
2017-10-16T22:57:03.409Z,95323.38
2017-10-16T22:59:31.219Z,95330.66
2017-10-16T23:01:58.970Z,95331.47
2017-10-16T23:04:26.735Z,95330.84
2017-10-16T23:06:55.673Z,95335.41
2017-10-16T23:09:23.404Z,95333.21
2017-10-16T23:11:51.364Z,95330.48
2017-10-16T23:14:19.148Z,95329.55
2017-10-16T23:16:46.880Z,95331.73
2017-10-16T23:19:14.681Z,95328.52
2017-10-16T23:21:42.520Z,95330.16
2017-10-16T23:24:10.309Z,95334.16
2017-10-16T23:26:38.063Z,95336.56
2017-10-16T23:29:05.942Z,95334.45
2017-10-16T23:31:33.990Z,95337.05
2017-10-16T23:34:01.792Z,95333.41
2017-10-16T23:36:29.542Z,95336.17
2017-10-16T23:38:57.269Z,95333.14
2017-10-16T23:41:25.055Z,95332.45
2017-10-16T23:43:52.854Z,95329.11
2017-10-16T23:46:20.660Z,95332.30
2017-10-16T23:48:48.423Z,95326.02
2017-10-16T23:51:16.142Z,95333.69
2017-10-16T23:53:43.912Z,95329.05
2017-10-16T23:56:11.717Z,95327.45
2017-10-16T23:58:39.470Z,95327.70
